createdAt,value
2018-07-09T00:00:27.120Z,14.80
2018-07-09T00:02:55.467Z,14.80
2018-07-09T00:05:23.788Z,14.80
2018-07-09T00:07:52.257Z,14.70
2018-07-09T00:11:25.637Z,14.70
2018-07-09T00:13:53.981Z,14.70
2018-07-09T00:16:22.278Z,14.70
2018-07-09T00:18:50.625Z,14.70
2018-07-09T00:21:18.992Z,14.70
2018-07-09T00:23:47.352Z,14.70
2018-07-09T00:26:15.669Z,14.70
2018-07-09T00:28:44.021Z,14.60
2018-07-09T00:31:12.348Z,14.60
2018-07-09T00:33:40.714Z,14.60
2018-07-09T00:36:09.040Z,14.50
2018-07-09T00:38:37.395Z,14.40
2018-07-09T00:41:05.730Z,14.30
2018-07-09T00:43:34.075Z,14.20
2018-07-09T00:46:02.901Z,14.20
2018-07-09T00:48:31.282Z,14.10
2018-07-09T00:50:59.632Z,14.00
2018-07-09T00:53:27.993Z,14.00
2018-07-09T00:55:56.340Z,13.90
2018-07-09T00:58:24.724Z,13.90
2018-07-09T01:00:53.029Z,13.90
2018-07-09T01:03:21.356Z,13.90
2018-07-09T01:05:49.712Z,13.80
2018-07-09T01:08:18.052Z,13.80
2018-07-09T01:10:57.729Z,13.80
2018-07-09T01:13:37.212Z,13.80
2018-07-09T01:18:33.712Z,13.70
2018-07-09T01:21:02.075Z,13.70
2018-07-09T01:23:30.454Z,13.60
2018-07-09T01:25:58.796Z,13.60
2018-07-09T01:28:27.193Z,13.60
2018-07-09T01:30:55.480Z,13.60
2018-07-09T01:33:24.133Z,13.50
2018-07-09T01:35:52.408Z,13.50
2018-07-09T01:38:20.730Z,13.40
2018-07-09T01:40:49.019Z,13.30
2018-07-09T01:43:17.341Z,13.20
2018-07-09T01:45:45.636Z,13.20
2018-07-09T01:48:13.977Z,13.10
2018-07-09T01:50:42.280Z,13.10
2018-07-09T01:53:10.625Z,13.00
2018-07-09T01:55:38.940Z,13.00
2018-07-09T01:58:07.478Z,12.90
2018-07-09T02:00:35.872Z,12.80
2018-07-09T02:03:04.208Z,12.80
2018-07-09T02:05:32.529Z,12.70
2018-07-09T02:08:00.835Z,12.70
2018-07-09T02:10:29.181Z,12.60
2018-07-09T02:12:57.466Z,12.60
2018-07-09T02:15:25.796Z,12.50
2018-07-09T02:17:54.112Z,12.50
2018-07-09T02:20:22.454Z,12.50
2018-07-09T02:22:50.777Z,12.50
2018-07-09T02:25:19.112Z,12.40
2018-07-09T02:27:47.436Z,12.40
2018-07-09T02:30:15.783Z,12.30
2018-07-09T02:32:44.080Z,12.30
2018-07-09T02:35:12.399Z,12.30
2018-07-09T02:37:40.718Z,12.20
2018-07-09T02:40:09.068Z,12.20
2018-07-09T02:45:06.610Z,12.00
2018-07-09T02:47:34.925Z,12.00
2018-07-09T02:50:03.261Z,12.00
2018-07-09T02:52:32.650Z,12.00
2018-07-09T02:55:00.991Z,12.00
2018-07-09T02:57:29.319Z,12.00
2018-07-09T02:59:57.638Z,12.00
2018-07-09T03:02:28.025Z,12.00
2018-07-09T03:04:56.357Z,12.00
2018-07-09T03:07:24.693Z,12.00
2018-07-09T03:09:53.017Z,11.90
2018-07-09T03:12:21.314Z,11.90
2018-07-09T03:14:49.641Z,11.80
2018-07-09T03:17:17.928Z,11.80
2018-07-09T03:19:46.262Z,11.80
2018-07-09T03:22:14.557Z,11.80
2018-07-09T03:24:42.884Z,11.80
2018-07-09T03:27:11.193Z,11.70
2018-07-09T03:29:39.531Z,11.70
2018-07-09T03:32:07.864Z,11.70
2018-07-09T03:34:36.200Z,11.70
2018-07-09T03:37:04.560Z,11.60
2018-07-09T03:39:32.901Z,11.60
2018-07-09T03:42:01.184Z,11.60
2018-07-09T03:44:29.504Z,11.60
2018-07-09T03:46:57.792Z,11.60
2018-07-09T03:49:26.109Z,11.60
2018-07-09T03:51:54.403Z,11.60
2018-07-09T03:54:22.789Z,11.60
2018-07-09T03:56:51.833Z,11.70
2018-07-09T03:59:20.188Z,11.70
2018-07-09T04:01:48.484Z,11.70
2018-07-09T04:04:16.808Z,11.70
2018-07-09T04:06:45.128Z,11.80
2018-07-09T04:11:41.477Z,11.80
2018-07-09T04:14:09.775Z,11.80
2018-07-09T04:16:38.100Z,11.80
2018-07-09T04:19:06.388Z,11.80
2018-07-09T04:21:34.714Z,11.90
2018-07-09T04:24:03.017Z,11.90
2018-07-09T04:26:31.334Z,11.90
2018-07-09T04:28:59.632Z,12.00
2018-07-09T04:33:55.968Z,12.10
2018-07-09T04:36:24.299Z,12.20
2018-07-09T04:38:52.595Z,12.30
2018-07-09T04:41:20.973Z,12.40
2018-07-09T04:43:49.265Z,12.60
2018-07-09T04:46:17.601Z,12.70
2018-07-09T04:48:45.889Z,12.90
2018-07-09T04:51:14.208Z,13.10
2018-07-09T04:53:42.537Z,13.30
2018-07-09T04:56:10.856Z,13.50
2018-07-09T04:58:39.140Z,13.70
2018-07-09T05:01:07.480Z,13.90
2018-07-09T05:03:35.772Z,14.10
2018-07-09T05:06:10.813Z,14.30
2018-07-09T05:08:39.109Z,14.60
2018-07-09T05:11:07.438Z,14.80
2018-07-09T05:13:35.776Z,15.00
2018-07-09T05:16:04.125Z,15.20
2018-07-09T05:18:32.408Z,15.40
2018-07-09T05:21:00.732Z,15.60
2018-07-09T05:25:57.073Z,16.00
2018-07-09T05:28:25.368Z,16.20
2018-07-09T05:30:53.697Z,16.40
2018-07-09T05:33:22.070Z,16.50
2018-07-09T05:35:50.329Z,16.70
2018-07-09T05:38:18.649Z,16.90
2018-07-09T05:40:46.978Z,17.10
2018-07-09T05:43:15.365Z,17.30
2018-07-09T05:45:43.709Z,17.50
2018-07-09T05:48:12.085Z,17.70
2018-07-09T05:50:40.371Z,17.90
2018-07-09T05:55:36.740Z,18.20
2018-07-09T05:58:05.100Z,18.40
2018-07-09T06:00:33.388Z,18.60
2018-07-09T06:03:01.763Z,18.70
2018-07-09T06:05:30.088Z,18.80
2018-07-09T06:07:58.409Z,18.80
2018-07-09T06:10:26.705Z,18.80
2018-07-09T06:12:55.069Z,18.80
2018-07-09T06:15:23.370Z,18.90
2018-07-09T06:17:51.723Z,18.90
2018-07-09T06:20:20.057Z,18.90
2018-07-09T06:22:49.601Z,18.90
2018-07-09T06:25:17.892Z,19.00
2018-07-09T06:27:46.227Z,19.20
2018-07-09T06:30:14.529Z,19.20
2018-07-09T06:32:42.849Z,19.20
2018-07-09T06:35:11.148Z,19.30
2018-07-09T06:37:39.497Z,19.40
2018-07-09T06:40:07.861Z,19.30
2018-07-09T06:42:36.209Z,19.40
2018-07-09T06:45:04.589Z,19.40
2018-07-09T06:47:32.938Z,19.60
2018-07-09T06:50:01.293Z,19.80
2018-07-09T06:52:29.616Z,20.00
2018-07-09T06:54:58.033Z,20.20
2018-07-09T06:57:26.376Z,20.20
2018-07-09T06:59:54.697Z,20.20
2018-07-09T07:02:23.076Z,20.20
2018-07-09T07:04:51.348Z,20.30
2018-07-09T07:07:19.672Z,20.50
2018-07-09T07:09:47.966Z,20.60
2018-07-09T07:12:16.312Z,20.70
2018-07-09T07:14:44.730Z,20.70
2018-07-09T07:17:13.083Z,20.90
2018-07-09T07:19:41.392Z,21.00
2018-07-09T07:22:09.744Z,21.20
2018-07-09T07:24:38.044Z,21.20
2018-07-09T07:27:06.388Z,21.30
2018-07-09T07:29:34.706Z,21.20
2018-07-09T07:32:03.056Z,21.40
2018-07-09T07:34:31.373Z,21.50
2018-07-09T07:36:59.765Z,21.70
2018-07-09T07:39:28.174Z,21.90
2018-07-09T07:41:56.424Z,21.90
2018-07-09T07:44:24.748Z,22.00
2018-07-09T07:46:53.049Z,22.20
2018-07-09T07:49:21.381Z,22.50
2018-07-09T07:51:49.757Z,22.70
2018-07-09T07:54:18.140Z,22.50
2018-07-09T07:56:46.436Z,22.40
2018-07-09T07:59:14.770Z,22.40
2018-07-09T08:01:43.079Z,22.40
2018-07-09T08:04:11.401Z,22.50
2018-07-09T08:06:39.728Z,22.60
2018-07-09T08:09:08.075Z,22.50
2018-07-09T08:11:48.560Z,22.50
2018-07-09T08:14:04.813Z,22.50
2018-07-09T08:16:33.098Z,22.50
2018-07-09T08:19:01.440Z,22.50
2018-07-09T08:21:29.728Z,22.60
2018-07-09T08:23:58.068Z,22.60
2018-07-09T08:26:26.393Z,22.60
2018-07-09T08:28:54.726Z,22.60
2018-07-09T08:31:23.219Z,22.70
2018-07-09T08:33:51.384Z,22.90
2018-07-09T08:36:19.705Z,23.10
2018-07-09T08:38:48.045Z,23.10
2018-07-09T08:41:16.356Z,23.00
2018-07-09T08:43:44.704Z,23.00
2018-07-09T08:46:13.016Z,23.00
2018-07-09T08:48:41.353Z,23.00
2018-07-09T08:51:09.641Z,23.10
2018-07-09T08:53:38.009Z,23.20
2018-07-09T08:56:06.338Z,23.30
2018-07-09T08:58:34.657Z,23.50
2018-07-09T09:01:03.024Z,23.60
2018-07-09T09:03:31.371Z,23.70
2018-07-09T09:05:59.684Z,23.70
2018-07-09T09:08:34.729Z,23.80
2018-07-09T09:11:03.032Z,23.90
2018-07-09T09:13:31.352Z,23.80
2018-07-09T09:15:59.649Z,23.80
2018-07-09T09:18:27.994Z,23.80
2018-07-09T09:20:56.304Z,23.80
2018-07-09T09:23:24.661Z,23.60
2018-07-09T09:25:52.972Z,23.70
2018-07-09T09:28:21.318Z,23.50
2018-07-09T09:30:49.621Z,23.50
2018-07-09T09:33:17.956Z,23.60
2018-07-09T09:35:46.524Z,23.60
2018-07-09T09:38:14.885Z,23.70
2018-07-09T09:40:43.194Z,23.80
2018-07-09T09:43:11.528Z,23.60
2018-07-09T09:45:39.901Z,23.70
2018-07-09T09:48:08.212Z,23.70
2018-07-09T09:50:36.548Z,23.70
2018-07-09T09:53:04.860Z,23.80
2018-07-09T09:55:33.253Z,23.70
2018-07-09T09:58:01.545Z,23.90
2018-07-09T10:00:35.140Z,24.10
2018-07-09T10:03:03.478Z,24.10
2018-07-09T10:05:31.812Z,24.20
2018-07-09T10:08:00.113Z,24.20
2018-07-09T10:10:30.412Z,24.10
2018-07-09T10:12:58.732Z,24.10
2018-07-09T10:15:27.080Z,24.10
2018-07-09T10:17:55.382Z,24.20
2018-07-09T10:20:23.740Z,24.30
2018-07-09T10:22:52.601Z,24.40
2018-07-09T10:25:20.872Z,24.40
2018-07-09T10:27:49.174Z,24.40
2018-07-09T10:30:17.493Z,24.40
2018-07-09T10:32:45.794Z,24.50
2018-07-09T10:35:14.169Z,24.50
2018-07-09T10:37:42.470Z,24.50
2018-07-09T10:40:10.825Z,24.50
2018-07-09T10:42:39.136Z,24.60
2018-07-09T10:45:07.477Z,24.70
2018-07-09T10:47:35.776Z,24.70
2018-07-09T10:50:04.120Z,24.70
2018-07-09T10:52:32.432Z,24.60
2018-07-09T10:55:00.816Z,24.60
2018-07-09T10:57:29.124Z,24.60
2018-07-09T10:59:57.452Z,24.60
2018-07-09T11:02:25.820Z,24.70
2018-07-09T11:04:54.166Z,24.80
2018-07-09T11:07:22.480Z,25.00
2018-07-09T11:09:50.850Z,25.10
2018-07-09T11:12:19.148Z,24.80
2018-07-09T11:14:47.537Z,24.60
2018-07-09T11:17:15.825Z,24.50
2018-07-09T11:19:44.177Z,24.40
2018-07-09T11:22:12.469Z,24.30
2018-07-09T11:24:40.792Z,24.20
2018-07-09T11:27:09.117Z,24.10
2018-07-09T11:29:37.476Z,24.00
2018-07-09T11:32:05.860Z,24.20
2018-07-09T11:34:34.184Z,24.20
2018-07-09T11:37:02.476Z,24.40
2018-07-09T11:39:30.760Z,24.70
2018-07-09T11:41:59.080Z,24.80
2018-07-09T11:44:28.172Z,24.70
2018-07-09T11:46:56.512Z,24.60
2018-07-09T11:49:24.804Z,24.50
2018-07-09T11:51:53.152Z,24.30
2018-07-09T11:54:21.480Z,24.40
2018-07-09T11:56:49.845Z,24.40
2018-07-09T11:59:18.156Z,24.40
2018-07-09T12:01:46.535Z,24.40
2018-07-09T12:04:14.848Z,24.30
2018-07-09T12:06:43.208Z,24.40
2018-07-09T12:09:11.521Z,24.50
2018-07-09T12:11:40.009Z,24.60
2018-07-09T12:14:08.300Z,24.50
2018-07-09T12:16:36.629Z,24.50
2018-07-09T12:19:04.962Z,24.50
2018-07-09T12:21:33.358Z,24.40
2018-07-09T12:24:01.685Z,24.40
2018-07-09T12:26:30.025Z,24.40
2018-07-09T12:28:58.389Z,24.40
2018-07-09T12:31:26.729Z,24.30
2018-07-09T12:36:23.233Z,24.70
2018-07-09T12:38:51.493Z,24.80
2018-07-09T12:41:19.818Z,24.90
2018-07-09T12:43:48.160Z,24.90
2018-07-09T12:46:16.452Z,24.90
2018-07-09T12:48:44.756Z,24.80
2018-07-09T12:51:13.117Z,24.70
2018-07-09T12:53:41.408Z,24.80
2018-07-09T12:56:09.788Z,24.90
2018-07-09T12:58:38.079Z,24.80
2018-07-09T13:01:06.668Z,24.80
2018-07-09T13:03:34.966Z,24.90
2018-07-09T13:06:03.316Z,24.90
2018-07-09T13:08:31.614Z,25.00
2018-07-09T13:10:59.978Z,25.10
2018-07-09T13:13:28.297Z,25.20
2018-07-09T13:15:56.662Z,25.40
2018-07-09T13:18:24.967Z,25.60
2018-07-09T13:20:53.326Z,25.80
2018-07-09T13:23:21.686Z,25.80
2018-07-09T13:25:50.013Z,25.60
2018-07-09T13:28:18.378Z,25.40
2018-07-09T13:30:46.724Z,25.40
2018-07-09T13:33:15.126Z,25.30
2018-07-09T13:35:43.448Z,25.40
2018-07-09T13:38:11.789Z,25.50
2018-07-09T13:40:40.157Z,25.60
2018-07-09T13:43:08.550Z,25.60
2018-07-09T13:45:37.001Z,25.60
2018-07-09T13:48:05.426Z,25.70
2018-07-09T13:50:34.433Z,25.80
2018-07-09T13:53:02.807Z,25.90
2018-07-09T13:55:31.353Z,25.90
2018-07-09T13:57:59.732Z,25.70
2018-07-09T14:00:28.080Z,25.40
2018-07-09T14:02:56.424Z,25.30
2018-07-09T14:05:24.736Z,25.40
2018-07-09T14:07:53.092Z,25.50
2018-07-09T14:10:21.463Z,25.60
2018-07-09T14:12:49.803Z,25.70
2018-07-09T14:15:18.092Z,25.70
2018-07-09T14:17:46.439Z,25.70
2018-07-09T14:20:28.912Z,25.70
2018-07-09T14:22:57.522Z,25.80
2018-07-09T14:25:26.038Z,25.80
2018-07-09T14:27:54.367Z,25.90
2018-07-09T14:30:22.772Z,25.90
2018-07-09T14:32:51.124Z,25.80
2018-07-09T14:35:19.493Z,25.70
2018-07-09T14:38:05.567Z,25.70
2018-07-09T14:40:41.566Z,25.90
2018-07-09T14:43:09.883Z,26.00
2018-07-09T14:45:39.285Z,26.10
2018-07-09T14:50:35.665Z,26.00
2018-07-09T14:53:04.047Z,26.10
2018-07-09T14:55:32.731Z,26.10
2018-07-09T14:58:01.555Z,26.20
2018-07-09T15:00:29.858Z,26.20
2018-07-09T15:02:58.249Z,26.30
2018-07-09T15:05:26.559Z,26.30
2018-07-09T15:07:54.892Z,26.30
2018-07-09T15:10:23.221Z,26.30
2018-07-09T15:12:52.053Z,26.20
2018-07-09T15:15:20.368Z,26.10
2018-07-09T15:17:48.796Z,26.00
2018-07-09T15:20:17.122Z,26.00
2018-07-09T15:22:45.481Z,25.90
2018-07-09T15:25:13.827Z,25.70
2018-07-09T15:27:42.156Z,25.60
2018-07-09T15:30:10.495Z,25.50
2018-07-09T15:32:38.879Z,25.50
2018-07-09T15:35:07.256Z,25.60
2018-07-09T15:37:35.597Z,25.60
2018-07-09T15:40:04.060Z,25.70
2018-07-09T15:42:32.443Z,25.70
2018-07-09T15:45:00.757Z,25.80
2018-07-09T15:47:29.084Z,25.90
2018-07-09T15:49:57.417Z,25.90
2018-07-09T15:52:25.737Z,25.90
2018-07-09T15:54:54.142Z,26.00
2018-07-09T15:57:22.442Z,25.90
2018-07-09T15:59:50.793Z,25.80
2018-07-09T16:02:19.104Z,25.60
2018-07-09T16:04:47.485Z,25.60
2018-07-09T16:07:15.777Z,25.60
2018-07-09T16:09:44.134Z,25.70
2018-07-09T16:12:12.440Z,25.90
2018-07-09T16:14:40.808Z,25.90
2018-07-09T16:17:09.106Z,25.90
2018-07-09T16:19:37.444Z,25.90
2018-07-09T16:22:05.788Z,26.00
2018-07-09T16:24:34.129Z,25.90
2018-07-09T16:27:02.451Z,25.80
2018-07-09T16:29:30.797Z,25.70
2018-07-09T16:31:59.108Z,25.60
2018-07-09T16:34:27.440Z,25.60
2018-07-09T16:36:56.409Z,25.50
2018-07-09T16:39:25.957Z,25.60
2018-07-09T16:41:54.463Z,25.60
2018-07-09T16:44:24.089Z,25.50
2018-07-09T16:46:52.918Z,25.50
2018-07-09T16:49:21.950Z,25.50
2018-07-09T16:54:18.556Z,25.40
2018-07-09T16:56:46.872Z,25.50
2018-07-09T16:59:15.333Z,25.60
2018-07-09T17:01:43.619Z,25.70
2018-07-09T17:04:11.936Z,25.80
2018-07-09T17:06:40.269Z,25.90
2018-07-09T17:09:08.571Z,26.00
2018-07-09T17:11:36.911Z,26.10
2018-07-09T17:14:05.249Z,26.20
2018-07-09T17:19:01.597Z,26.20
2018-07-09T17:21:29.932Z,26.30
2018-07-09T17:23:58.241Z,26.20
2018-07-09T17:26:26.646Z,26.20
2018-07-09T17:28:54.909Z,26.30
2018-07-09T17:33:51.277Z,25.90
2018-07-09T17:36:19.604Z,25.80
2018-07-09T17:38:47.925Z,25.70
2018-07-09T17:43:44.331Z,25.60
2018-07-09T17:46:12.655Z,25.30
2018-07-09T17:48:40.947Z,25.10
2018-07-09T17:51:09.280Z,24.90
2018-07-09T17:53:37.575Z,24.80
2018-07-09T17:56:05.984Z,24.90
2018-07-09T17:58:34.301Z,24.90
2018-07-09T18:01:02.654Z,25.00
2018-07-09T18:03:30.954Z,25.00
2018-07-09T18:05:59.294Z,24.90
2018-07-09T18:08:27.605Z,24.80
2018-07-09T18:10:55.933Z,24.80
2018-07-09T18:13:24.236Z,24.80
2018-07-09T18:15:52.657Z,24.70
2018-07-09T18:18:20.988Z,24.50
2018-07-09T18:20:49.320Z,24.30
2018-07-09T18:23:17.627Z,24.20
2018-07-09T18:25:45.988Z,24.00
2018-07-09T18:28:14.593Z,24.00
2018-07-09T18:30:42.952Z,23.80
2018-07-09T18:33:11.260Z,23.80
2018-07-09T18:38:07.681Z,23.60
2018-07-09T18:40:36.059Z,23.50
2018-07-09T18:43:04.445Z,23.40
2018-07-09T18:45:32.749Z,23.30
2018-07-09T18:48:01.124Z,23.10
2018-07-09T18:50:29.424Z,23.00
2018-07-09T18:52:57.768Z,22.90
2018-07-09T18:55:26.108Z,22.80
2018-07-09T18:57:54.647Z,22.70
2018-07-09T19:00:22.949Z,22.60
2018-07-09T19:02:51.288Z,22.50
2018-07-09T19:05:26.171Z,22.40
2018-07-09T19:07:54.649Z,22.40
2018-07-09T19:10:23.055Z,22.30
2018-07-09T19:12:51.400Z,22.20
2018-07-09T19:15:19.753Z,22.10
2018-07-09T19:18:56.773Z,22.10
2018-07-09T19:21:37.710Z,22.00
2018-07-09T19:24:06.209Z,21.80
2018-07-09T19:26:33.537Z,21.80
2018-07-09T19:29:00.871Z,21.70
2018-07-09T19:31:28.209Z,21.60
2018-07-09T19:33:55.519Z,21.60
2018-07-09T19:36:22.810Z,21.50
2018-07-09T19:38:50.103Z,21.40
2018-07-09T19:41:17.368Z,21.30
2018-07-09T19:43:44.678Z,21.30
2018-07-09T19:46:11.931Z,21.20
2018-07-09T19:48:39.330Z,21.10
2018-07-09T19:51:06.597Z,21.00
2018-07-09T19:56:01.390Z,20.80
2018-07-09T19:58:28.677Z,20.80
2018-07-09T20:00:55.933Z,20.70
2018-07-09T20:03:23.283Z,20.60
2018-07-09T20:05:50.536Z,20.60
2018-07-09T20:08:17.853Z,20.50
2018-07-09T20:10:50.518Z,20.40
2018-07-09T20:13:23.192Z,20.30
2018-07-09T20:15:55.796Z,20.30
2018-07-09T20:18:23.114Z,20.20
2018-07-09T20:20:50.405Z,20.20
2018-07-09T20:23:17.653Z,20.20
2018-07-09T20:25:44.905Z,20.10
2018-07-09T20:28:12.192Z,20.00
2018-07-09T20:30:39.444Z,20.00
2018-07-09T20:33:06.734Z,19.90
2018-07-09T20:35:33.983Z,19.90
2018-07-09T20:38:01.272Z,19.90
2018-07-09T20:40:28.518Z,19.90
2018-07-09T20:42:55.808Z,19.90
2018-07-09T20:45:23.060Z,19.80
2018-07-09T20:47:50.336Z,19.80
2018-07-09T20:50:17.589Z,19.80
2018-07-09T20:55:12.393Z,19.70
2018-07-09T20:57:39.644Z,19.70
2018-07-09T21:00:06.934Z,19.60
2018-07-09T21:02:34.184Z,19.60
2018-07-09T21:05:01.468Z,19.60
2018-07-09T21:07:28.717Z,19.50
2018-07-09T21:09:56.018Z,19.50
2018-07-09T21:12:23.268Z,19.40
2018-07-09T21:14:50.552Z,19.40
2018-07-09T21:17:17.800Z,19.40
2018-07-09T21:19:45.085Z,19.40
2018-07-09T21:29:34.948Z,19.20
2018-07-09T21:32:02.189Z,19.20
2018-07-09T21:34:29.472Z,19.10
2018-07-09T21:36:56.740Z,19.10
2018-07-09T21:41:51.604Z,18.90
2018-07-09T21:44:18.888Z,18.90
2018-07-09T21:46:46.144Z,18.80
2018-07-09T21:49:13.436Z,18.70
2018-07-09T21:51:40.690Z,18.70
2018-07-09T21:54:07.969Z,18.60
2018-07-09T21:56:35.314Z,18.50
2018-07-09T21:59:02.549Z,18.50
2018-07-09T22:01:29.811Z,18.40
2018-07-09T22:03:57.057Z,18.30
2018-07-09T22:06:24.341Z,18.20
2018-07-09T22:08:51.587Z,18.20
2018-07-09T22:11:18.873Z,18.10
2018-07-09T22:13:46.120Z,18.00
2018-07-09T22:16:13.410Z,17.90
2018-07-09T22:18:40.665Z,17.90
2018-07-09T22:21:07.949Z,17.80
2018-07-09T22:23:35.203Z,17.70
2018-07-09T22:26:02.484Z,17.60
2018-07-09T22:28:29.739Z,17.60
2018-07-09T22:30:58.081Z,17.50
2018-07-09T22:33:26.384Z,17.50
2018-07-09T22:35:54.711Z,17.50
2018-07-09T22:38:23.005Z,17.40
2018-07-09T22:40:51.334Z,17.40
2018-07-09T22:43:30.933Z,17.40
2018-07-09T22:45:59.264Z,17.40
2018-07-09T22:48:27.556Z,17.40
2018-07-09T22:50:55.976Z,17.40
2018-07-09T22:53:24.220Z,17.40
2018-07-09T22:56:03.132Z,17.40
2018-07-09T22:58:31.420Z,17.40
2018-07-09T23:00:59.805Z,17.40
2018-07-09T23:03:28.098Z,17.30
2018-07-09T23:05:56.420Z,17.30
2018-07-09T23:08:24.737Z,17.30
2018-07-09T23:13:05.138Z,17.30
2018-07-09T23:15:44.776Z,17.30
2018-07-09T23:18:53.445Z,17.20
2018-07-09T23:22:27.225Z,17.20
2018-07-09T23:24:54.476Z,17.20
2018-07-09T23:27:21.759Z,17.30
2018-07-09T23:29:49.021Z,17.20
2018-07-09T23:32:16.302Z,17.20
2018-07-09T23:34:43.544Z,17.30
2018-07-09T23:37:10.835Z,17.20
2018-07-09T23:39:38.101Z,17.20
2018-07-09T23:42:05.409Z,17.20
2018-07-09T23:44:32.657Z,17.20
2018-07-09T23:46:59.936Z,17.20
2018-07-09T23:49:27.185Z,17.20
2018-07-09T23:51:54.474Z,17.20
2018-07-09T23:54:21.721Z,17.20
2018-07-09T23:56:58.066Z,17.20
2018-07-09T23:59:37.739Z,17.20
